sensor_id;sensor_type;location;lat;lon;timestamp;pressure;altitude;pressure_sealevel;temperature;humidity
51147;BME280;37207;53.060;18.726;2022-09-03T00:05:09;101401.77;;;12.17;70.85
51147;BME280;37207;53.060;18.726;2022-09-03T00:08:43;101404.17;;;12.14;71.09
51147;BME280;37207;53.060;18.726;2022-09-03T00:13:28;101401.08;;;12.11;71.33
51147;BME280;37207;53.060;18.726;2022-09-03T00:16:42;101400.86;;;12.11;71.42
51147;BME280;37207;53.060;18.726;2022-09-03T00:19:12;101399.40;;;12.10;71.43
51147;BME280;37207;53.060;18.726;2022-09-03T00:21:46;101401.16;;;12.10;71.45
51147;BME280;37207;53.060;18.726;2022-09-03T00:24:18;101403.39;;;12.08;71.53
51147;BME280;37207;53.060;18.726;2022-09-03T00:26:51;101404.55;;;12.06;71.46
51147;BME280;37207;53.060;18.726;2022-09-03T00:29:27;101400.99;;;12.04;71.51
51147;BME280;37207;53.060;18.726;2022-09-03T00:32:02;101400.23;;;12.04;71.60
51147;BME280;37207;53.060;18.726;2022-09-03T00:34:38;101405.30;;;12.03;71.77
51147;BME280;37207;53.060;18.726;2022-09-03T00:37:08;101399.30;;;12.03;71.83
51147;BME280;37207;53.060;18.726;2022-09-03T00:39:36;101397.98;;;12.03;71.89
51147;BME280;37207;53.060;18.726;2022-09-03T00:48:57;101396.20;;;11.96;72.06
51147;BME280;37207;53.060;18.726;2022-09-03T00:51:42;101396.34;;;11.92;72.17
51147;BME280;37207;53.060;18.726;2022-09-03T00:55:03;101392.46;;;11.89;72.16
51147;BME280;37207;53.060;18.726;2022-09-03T01:00:41;101387.55;;;11.83;72.58
51147;BME280;37207;53.060;18.726;2022-09-03T01:15:44;101386.86;;;11.71;72.85
51147;BME280;37207;53.060;18.726;2022-09-03T01:32:32;101387.16;;;11.64;73.32
51147;BME280;37207;53.060;18.726;2022-09-03T01:40:59;101386.73;;;11.63;73.54
51147;BME280;37207;53.060;18.726;2022-09-03T01:46:40;101385.42;;;11.57;73.52
51147;BME280;37207;53.060;18.726;2022-09-03T01:49:19;101387.39;;;11.57;73.64
51147;BME280;37207;53.060;18.726;2022-09-03T01:57:57;101383.08;;;11.60;73.65
51147;BME280;37207;53.060;18.726;2022-09-03T02:00:44;101381.31;;;11.60;73.65
51147;BME280;37207;53.060;18.726;2022-09-03T02:03:21;101378.34;;;11.57;73.59
51147;BME280;37207;53.060;18.726;2022-09-03T02:05:49;101378.08;;;11.57;73.59
51147;BME280;37207;53.060;18.726;2022-09-03T02:08:19;101377.26;;;11.56;73.59
51147;BME280;37207;53.060;18.726;2022-09-03T02:10:51;101372.30;;;11.55;73.57
51147;BME280;37207;53.060;18.726;2022-09-03T02:13:40;101368.23;;;11.55;73.57
51147;BME280;37207;53.060;18.726;2022-09-03T02:16:20;101367.36;;;11.54;73.69
51147;BME280;37207;53.060;18.726;2022-09-03T02:19:07;101362.33;;;11.54;73.63
51147;BME280;37207;53.060;18.726;2022-09-03T02:21:46;101367.84;;;11.53;73.63
51147;BME280;37207;53.060;18.726;2022-09-03T02:24:16;101366.42;;;11.53;73.70
51147;BME280;37207;53.060;18.726;2022-09-03T02:26:44;101365.09;;;11.54;73.82
51147;BME280;37207;53.060;18.726;2022-09-03T02:29:14;101364.54;;;11.54;73.79
51147;BME280;37207;53.060;18.726;2022-09-03T02:31:43;101360.73;;;11.52;73.91
51147;BME280;37207;53.060;18.726;2022-09-03T02:34:11;101362.10;;;11.50;73.78
51147;BME280;37207;53.060;18.726;2022-09-03T02:36:41;101361.91;;;11.46;73.83
51147;BME280;37207;53.060;18.726;2022-09-03T02:39:08;101360.84;;;11.42;73.86
51147;BME280;37207;53.060;18.726;2022-09-03T02:41:36;101359.48;;;11.39;74.01
51147;BME280;37207;53.060;18.726;2022-09-03T02:46:44;101359.38;;;11.37;74.20
51147;BME280;37207;53.060;18.726;2022-09-03T02:49:19;101361.34;;;11.39;74.04
51147;BME280;37207;53.060;18.726;2022-09-03T02:51:47;101363.70;;;11.41;74.03
51147;BME280;37207;53.060;18.726;2022-09-03T02:54:14;101365.63;;;11.42;73.87
51147;BME280;37207;53.060;18.726;2022-09-03T02:56:41;101365.11;;;11.41;73.76
51147;BME280;37207;53.060;18.726;2022-09-03T02:59:08;101370.90;;;11.39;73.71
51147;BME280;37207;53.060;18.726;2022-09-03T03:01:35;101375.42;;;11.37;73.65
51147;BME280;37207;53.060;18.726;2022-09-03T03:04:03;101371.18;;;11.36;73.67
51147;BME280;37207;53.060;18.726;2022-09-03T03:06:30;101373.78;;;11.35;73.69
51147;BME280;37207;53.060;18.726;2022-09-03T03:09:02;101376.46;;;11.34;73.71
51147;BME280;37207;53.060;18.726;2022-09-03T03:11:32;101378.36;;;11.29;73.47
51147;BME280;37207;53.060;18.726;2022-09-03T03:14:03;101385.81;;;11.24;73.54
51147;BME280;37207;53.060;18.726;2022-09-03T03:16:30;101380.59;;;11.17;73.52
51147;BME280;37207;53.060;18.726;2022-09-03T03:18:58;101380.18;;;11.14;73.58
51147;BME280;37207;53.060;18.726;2022-09-03T03:21:26;101382.34;;;11.12;73.74
51147;BME280;37207;53.060;18.726;2022-09-03T03:23:53;101378.73;;;11.08;73.63
51147;BME280;37207;53.060;18.726;2022-09-03T03:26:21;101378.55;;;11.03;73.70
51147;BME280;37207;53.060;18.726;2022-09-03T03:28:58;101376.93;;;10.99;73.68
51147;BME280;37207;53.060;18.726;2022-09-03T03:31:26;101376.63;;;10.95;73.98
51147;BME280;37207;53.060;18.726;2022-09-03T03:33:55;101376.92;;;10.92;74.08
51147;BME280;37207;53.060;18.726;2022-09-03T03:36:26;101381.39;;;10.92;74.16
51147;BME280;37207;53.060;18.726;2022-09-03T03:38:55;101387.34;;;10.90;74.25
51147;BME280;37207;53.060;18.726;2022-09-03T03:41:31;101384.86;;;10.87;74.14
51147;BME280;37207;53.060;18.726;2022-09-03T03:44:03;101384.29;;;10.86;74.30
51147;BME280;37207;53.060;18.726;2022-09-03T03:46:40;101382.33;;;10.84;74.33
51147;BME280;37207;53.060;18.726;2022-09-03T03:49:07;101382.89;;;10.80;74.43
51147;BME280;37207;53.060;18.726;2022-09-03T03:51:36;101378.41;;;10.77;74.58
51147;BME280;37207;53.060;18.726;2022-09-03T03:54:04;101381.70;;;10.76;74.64
51147;BME280;37207;53.060;18.726;2022-09-03T03:56:31;101382.61;;;10.74;74.75
51147;BME280;37207;53.060;18.726;2022-09-03T03:58:59;101378.00;;;10.72;74.63
51147;BME280;37207;53.060;18.726;2022-09-03T04:01:27;101385.73;;;10.72;74.87
51147;BME280;37207;53.060;18.726;2022-09-03T04:03:55;101386.17;;;10.73;74.85
51147;BME280;37207;53.060;18.726;2022-09-03T04:06:29;101384.41;;;10.73;74.79
51147;BME280;37207;53.060;18.726;2022-09-03T04:08:56;101384.05;;;10.72;74.92
51147;BME280;37207;53.060;18.726;2022-09-03T04:11:24;101384.33;;;10.72;75.00
51147;BME280;37207;53.060;18.726;2022-09-03T04:13:52;101385.25;;;10.72;75.16
51147;BME280;37207;53.060;18.726;2022-09-03T04:16:22;101386.50;;;10.72;75.06
51147;BME280;37207;53.060;18.726;2022-09-03T04:18:51;101391.42;;;10.72;75.03
51147;BME280;37207;53.060;18.726;2022-09-03T04:21:27;101394.48;;;10.72;75.01
51147;BME280;37207;53.060;18.726;2022-09-03T04:23:56;101391.67;;;10.72;75.16
51147;BME280;37207;53.060;18.726;2022-09-03T04:26:25;101392.80;;;10.73;75.21
51147;BME280;37207;53.060;18.726;2022-09-03T04:28:59;101387.83;;;10.73;75.27
51147;BME280;37207;53.060;18.726;2022-09-03T04:31:34;101392.50;;;10.74;75.19
51147;BME280;37207;53.060;18.726;2022-09-03T04:34:31;101386.40;;;10.77;75.40
51147;BME280;37207;53.060;18.726;2022-09-03T04:36:58;101387.41;;;10.81;75.30
51147;BME280;37207;53.060;18.726;2022-09-03T04:39:25;101389.48;;;10.83;75.34
51147;BME280;37207;53.060;18.726;2022-09-03T04:41:52;101386.66;;;10.84;75.19
51147;BME280;37207;53.060;18.726;2022-09-03T04:44:19;101386.09;;;10.86;75.24
51147;BME280;37207;53.060;18.726;2022-09-03T04:46:46;101387.08;;;10.89;75.34
51147;BME280;37207;53.060;18.726;2022-09-03T04:49:14;101386.36;;;10.92;75.50
51147;BME280;37207;53.060;18.726;2022-09-03T04:51:47;101388.58;;;10.96;75.30
51147;BME280;37207;53.060;18.726;2022-09-03T04:54:15;101384.73;;;11.01;75.31
51147;BME280;37207;53.060;18.726;2022-09-03T04:56:42;101390.38;;;11.06;75.14
51147;BME280;37207;53.060;18.726;2022-09-03T04:59:20;101391.77;;;11.12;75.30
51147;BME280;37207;53.060;18.726;2022-09-03T05:01:48;101389.38;;;11.17;75.25
51147;BME280;37207;53.060;18.726;2022-09-03T05:04:16;101389.52;;;11.21;75.14
51147;BME280;37207;53.060;18.726;2022-09-03T05:06:43;101390.20;;;11.25;75.06
51147;BME280;37207;53.060;18.726;2022-09-03T05:09:12;101385.58;;;11.27;74.85
51147;BME280;37207;53.060;18.726;2022-09-03T05:11:39;101384.09;;;11.30;75.03
51147;BME280;37207;53.060;18.726;2022-09-03T05:14:07;101388.14;;;11.34;75.07
51147;BME280;37207;53.060;18.726;2022-09-03T05:16:43;101390.58;;;11.38;75.06
51147;BME280;37207;53.060;18.726;2022-09-03T05:19:12;101390.02;;;11.39;75.20
51147;BME280;37207;53.060;18.726;2022-09-03T05:21:39;101394.11;;;11.44;75.20
51147;BME280;37207;53.060;18.726;2022-09-03T05:24:06;101401.30;;;11.50;75.28
51147;BME280;37207;53.060;18.726;2022-09-03T05:26:37;101405.11;;;11.57;75.09
51147;BME280;37207;53.060;18.726;2022-09-03T05:29:16;101407.95;;;11.64;75.13
51147;BME280;37207;53.060;18.726;2022-09-03T05:31:59;101407.05;;;11.69;75.12
51147;BME280;37207;53.060;18.726;2022-09-03T05:37:16;101410.24;;;11.85;74.91
51147;BME280;37207;53.060;18.726;2022-09-03T05:39:44;101410.14;;;11.90;74.67
51147;BME280;37207;53.060;18.726;2022-09-03T05:42:38;101406.69;;;11.97;74.84
51147;BME280;37207;53.060;18.726;2022-09-03T05:45:32;101406.73;;;12.05;74.78
51147;BME280;37207;53.060;18.726;2022-09-03T05:51:25;101408.72;;;12.23;74.63
51147;BME280;37207;53.060;18.726;2022-09-03T05:57:26;101413.92;;;12.36;74.44
51147;BME280;37207;53.060;18.726;2022-09-03T06:00:37;101413.56;;;12.44;74.24
51147;BME280;37207;53.060;18.726;2022-09-03T06:03:04;101416.23;;;12.53;74.10
51147;BME280;37207;53.060;18.726;2022-09-03T06:05:33;101411.66;;;12.60;74.04
51147;BME280;37207;53.060;18.726;2022-09-03T06:08:00;101413.38;;;12.68;73.81
51147;BME280;37207;53.060;18.726;2022-09-03T06:10:28;101412.48;;;12.71;73.56
51147;BME280;37207;53.060;18.726;2022-09-03T06:12:56;101415.09;;;12.80;73.61
51147;BME280;37207;53.060;18.726;2022-09-03T06:19:05;101417.37;;;12.99;73.19
51147;BME280;37207;53.060;18.726;2022-09-03T06:21:57;101416.21;;;13.06;73.09
51147;BME280;37207;53.060;18.726;2022-09-03T06:24:38;101410.05;;;13.16;72.81
51147;BME280;37207;53.060;18.726;2022-09-03T06:27:06;101413.11;;;13.28;72.63
51147;BME280;37207;53.060;18.726;2022-09-03T06:29:35;101415.50;;;13.34;72.33
51147;BME280;37207;53.060;18.726;2022-09-03T06:32:03;101423.23;;;13.42;72.28
51147;BME280;37207;53.060;18.726;2022-09-03T06:34:33;101425.14;;;13.48;71.67
51147;BME280;37207;53.060;18.726;2022-09-03T06:37:00;101421.60;;;13.61;71.69
51147;BME280;37207;53.060;18.726;2022-09-03T06:40:01;101421.34;;;13.87;71.53
51147;BME280;37207;53.060;18.726;2022-09-03T06:42:53;101420.05;;;14.31;70.08
51147;BME280;37207;53.060;18.726;2022-09-03T06:48:55;101424.80;;;17.39;66.50
51147;BME280;37207;53.060;18.726;2022-09-03T07:27:33;101430.46;;;22.10;52.93
51147;BME280;37207;53.060;18.726;2022-09-03T07:59:39;101423.58;;;21.71;49.98
51147;BME280;37207;53.060;18.726;2022-09-03T08:21:13;101431.42;;;22.97;48.42
51147;BME280;37207;53.060;18.726;2022-09-03T08:23:46;101433.66;;;23.20;47.73
51147;BME280;37207;53.060;18.726;2022-09-03T08:26:15;101434.93;;;23.39;48.37
51147;BME280;37207;53.060;18.726;2022-09-03T08:28:43;101435.23;;;23.58;48.16
51147;BME280;37207;53.060;18.726;2022-09-03T08:31:23;101433.56;;;23.74;47.94
51147;BME280;37207;53.060;18.726;2022-09-03T08:33:56;101430.49;;;23.91;48.18
51147;BME280;37207;53.060;18.726;2022-09-03T08:37:12;101429.48;;;24.01;47.60
51147;BME280;37207;53.060;18.726;2022-09-03T08:39:54;101425.11;;;24.07;47.31
51147;BME280;37207;53.060;18.726;2022-09-03T08:42:57;101424.55;;;24.10;45.96
51147;BME280;37207;53.060;18.726;2022-09-03T08:48:53;101417.33;;;24.13;45.98
51147;BME280;37207;53.060;18.726;2022-09-03T08:51:23;101412.52;;;24.27;45.56
51147;BME280;37207;53.060;18.726;2022-09-03T08:54:24;101409.72;;;24.35;46.25
51147;BME280;37207;53.060;18.726;2022-09-03T08:57:05;101413.83;;;24.41;45.53
51147;BME280;37207;53.060;18.726;2022-09-03T08:59:34;101417.66;;;24.47;44.92
51147;BME280;37207;53.060;18.726;2022-09-03T09:05:16;101414.89;;;24.55;44.39
51147;BME280;37207;53.060;18.726;2022-09-03T09:08:16;101413.97;;;24.64;44.32
51147;BME280;37207;53.060;18.726;2022-09-03T09:10:53;101413.93;;;24.77;44.10
51147;BME280;37207;53.060;18.726;2022-09-03T09:18:56;101411.43;;;26.32;42.95
51147;BME280;37207;53.060;18.726;2022-09-03T09:21:39;101414.27;;;26.97;42.33
51147;BME280;37207;53.060;18.726;2022-09-03T09:24:21;101415.59;;;27.08;41.53
51147;BME280;37207;53.060;18.726;2022-09-03T09:26:59;101415.52;;;26.95;41.13
51147;BME280;37207;53.060;18.726;2022-09-03T09:29:40;101418.10;;;26.72;40.85
51147;BME280;37207;53.060;18.726;2022-09-03T09:32:09;101408.19;;;26.57;41.25
51147;BME280;37207;53.060;18.726;2022-09-03T09:34:39;101407.11;;;26.41;41.40
51147;BME280;37207;53.060;18.726;2022-09-03T09:37:12;101409.69;;;26.29;40.72
51147;BME280;37207;53.060;18.726;2022-09-03T09:39:41;101407.34;;;26.22;41.23
51147;BME280;37207;53.060;18.726;2022-09-03T09:42:28;101403.23;;;26.19;41.09
51147;BME280;37207;53.060;18.726;2022-09-03T09:45:10;101399.40;;;26.19;41.38
51147;BME280;37207;53.060;18.726;2022-09-03T09:47:42;101395.90;;;26.23;41.16
51147;BME280;37207;53.060;18.726;2022-09-03T09:50:18;101397.85;;;26.24;41.05
51147;BME280;37207;53.060;18.726;2022-09-03T09:53:05;101398.83;;;26.28;40.25
51147;BME280;37207;53.060;18.726;2022-09-03T09:55:56;101394.56;;;26.38;40.31
51147;BME280;37207;53.060;18.726;2022-09-03T09:58:31;101392.77;;;26.50;40.38
51147;BME280;37207;53.060;18.726;2022-09-03T10:01:11;101391.52;;;26.73;40.26
51147;BME280;37207;53.060;18.726;2022-09-03T10:03:52;101387.50;;;27.14;40.08
51147;BME280;37207;53.060;18.726;2022-09-03T10:06:23;101387.43;;;27.51;39.16
51147;BME280;37207;53.060;18.726;2022-09-03T10:09:11;101380.99;;;28.08;38.70
51147;BME280;37207;53.060;18.726;2022-09-03T10:11:48;101382.55;;;29.09;38.08
51147;BME280;37207;53.060;18.726;2022-09-03T10:14:26;101383.70;;;30.50;36.18
51147;BME280;37207;53.060;18.726;2022-09-03T10:17:30;101386.13;;;32.07;34.25
51147;BME280;37207;53.060;18.726;2022-09-03T10:20:20;101382.29;;;33.51;31.62
51147;BME280;37207;53.060;18.726;2022-09-03T10:28:37;101386.65;;;35.75;27.36
51147;BME280;37207;53.060;18.726;2022-09-03T10:34:21;101377.80;;;37.18;25.95
51147;BME280;37207;53.060;18.726;2022-09-03T11:00:07;101353.65;;;34.95;25.29
51147;BME280;37207;53.060;18.726;2022-09-03T11:05:39;101346.85;;;33.81;26.78
51147;BME280;37207;53.060;18.726;2022-09-03T11:08:24;101340.35;;;33.23;27.57
51147;BME280;37207;53.060;18.726;2022-09-03T11:10:59;101342.60;;;32.75;27.04
51147;BME280;37207;53.060;18.726;2022-09-03T11:13:32;101337.48;;;32.34;27.53
51147;BME280;37207;53.060;18.726;2022-09-03T11:16:12;101333.82;;;32.00;27.94
51147;BME280;37207;53.060;18.726;2022-09-03T11:18:57;101337.81;;;31.65;28.07
51147;BME280;37207;53.060;18.726;2022-09-03T11:21:40;101338.27;;;31.21;28.14
51147;BME280;37207;53.060;18.726;2022-09-03T11:24:22;101332.12;;;30.94;28.31
51147;BME280;37207;53.060;18.726;2022-09-03T11:27:03;101322.58;;;30.81;28.80
51147;BME280;37207;53.060;18.726;2022-09-03T11:32:21;101324.77;;;30.87;28.42
51147;BME280;37207;53.060;18.726;2022-09-03T11:34:52;101329.56;;;30.73;27.98
51147;BME280;37207;53.060;18.726;2022-09-03T11:39:58;101332.08;;;30.74;28.78
51147;BME280;37207;53.060;18.726;2022-09-03T11:42:37;101322.70;;;30.75;28.98
51147;BME280;37207;53.060;18.726;2022-09-03T11:47:53;101318.16;;;30.77;29.00
51147;BME280;37207;53.060;18.726;2022-09-03T11:50:25;101318.23;;;30.92;29.14
51147;BME280;37207;53.060;18.726;2022-09-03T11:56:39;101314.58;;;31.45;28.38
51147;BME280;37207;53.060;18.726;2022-09-03T11:58:41;101307.50;;;31.74;28.09
51147;BME280;37207;53.060;18.726;2022-09-03T12:01:12;101304.13;;;31.81;27.65
51147;BME280;37207;53.060;18.726;2022-09-03T12:03:57;101300.86;;;32.10;27.26
51147;BME280;37207;53.060;18.726;2022-09-03T12:07:01;101302.58;;;32.48;26.69
51147;BME280;37207;53.060;18.726;2022-09-03T12:18:04;101288.63;;;33.25;25.12
51147;BME280;37207;53.060;18.726;2022-09-03T12:20:58;101286.00;;;33.84;25.06
51147;BME280;37207;53.060;18.726;2022-09-03T12:23:40;101287.59;;;34.03;24.56
51147;BME280;37207;53.060;18.726;2022-09-03T12:26:13;101292.33;;;32.94;24.42
51147;BME280;37207;53.060;18.726;2022-09-03T12:28:46;101288.48;;;32.16;24.87
51147;BME280;37207;53.060;18.726;2022-09-03T12:31:25;101286.67;;;31.40;25.73
51147;BME280;37207;53.060;18.726;2022-09-03T12:34:11;101285.23;;;30.46;26.11
51147;BME280;37207;53.060;18.726;2022-09-03T12:36:43;101282.23;;;29.67;26.77
51147;BME280;37207;53.060;18.726;2022-09-03T12:39:15;101280.27;;;29.55;27.28
51147;BME280;37207;53.060;18.726;2022-09-03T12:42:02;101273.61;;;29.94;27.26
51147;BME280;37207;53.060;18.726;2022-09-03T12:44:31;101268.95;;;30.64;27.27
51147;BME280;37207;53.060;18.726;2022-09-03T12:47:09;101268.19;;;31.30;26.38
51147;BME280;37207;53.060;18.726;2022-09-03T12:49:39;101259.61;;;31.75;25.91
51147;BME280;37207;53.060;18.726;2022-09-03T12:52:35;101261.45;;;31.82;25.68
51147;BME280;37207;53.060;18.726;2022-09-03T13:00:35;101267.70;;;29.99;26.84
51147;BME280;37207;53.060;18.726;2022-09-03T13:05:51;101261.95;;;30.77;26.17
51147;BME280;37207;53.060;18.726;2022-09-03T13:08:28;101260.73;;;31.02;26.27
51147;BME280;37207;53.060;18.726;2022-09-03T13:10:58;101263.34;;;31.27;26.15
51147;BME280;37207;53.060;18.726;2022-09-03T13:13:37;101253.14;;;31.44;26.18
51147;BME280;37207;53.060;18.726;2022-09-03T13:34:53;101245.29;;;29.57;27.14
51147;BME280;37207;53.060;18.726;2022-09-03T13:37:38;101241.12;;;29.48;27.25
51147;BME280;37207;53.060;18.726;2022-09-03T13:40:32;101242.56;;;29.31;27.44
51147;BME280;37207;53.060;18.726;2022-09-03T13:43:40;101234.40;;;29.16;27.71
51147;BME280;37207;53.060;18.726;2022-09-03T13:49:35;101229.98;;;28.30;28.35
51147;BME280;37207;53.060;18.726;2022-09-03T13:55:06;101221.61;;;27.60;29.31
51147;BME280;37207;53.060;18.726;2022-09-03T14:00:49;101225.08;;;26.92;29.39
51147;BME280;37207;53.060;18.726;2022-09-03T14:03:37;101222.11;;;26.75;29.94
51147;BME280;37207;53.060;18.726;2022-09-03T14:11:54;101216.88;;;26.28;29.98
51147;BME280;37207;53.060;18.726;2022-09-03T14:20:12;101217.98;;;25.74;30.29
51147;BME280;37207;53.060;18.726;2022-09-03T14:25:36;101216.17;;;25.45;31.13
51147;BME280;37207;53.060;18.726;2022-09-03T14:28:35;101213.71;;;25.38;31.55
51147;BME280;37207;53.060;18.726;2022-09-03T14:31:15;101215.63;;;25.32;31.48
51147;BME280;37207;53.060;18.726;2022-09-03T14:39:38;101215.17;;;24.96;31.74
51147;BME280;37207;53.060;18.726;2022-09-03T14:48:08;101214.02;;;24.36;31.94
51147;BME280;37207;53.060;18.726;2022-09-03T14:51:01;101219.20;;;24.19;32.20
51147;BME280;37207;53.060;18.726;2022-09-03T14:53:48;101220.83;;;24.06;32.37
51147;BME280;37207;53.060;18.726;2022-09-03T14:56:32;101220.96;;;23.88;32.51
51147;BME280;37207;53.060;18.726;2022-09-03T15:01:36;101219.60;;;23.63;32.96
51147;BME280;37207;53.060;18.726;2022-09-03T15:10:11;101221.66;;;23.29;33.93
51147;BME280;37207;53.060;18.726;2022-09-03T15:30:11;101221.20;;;22.32;34.66
51147;BME280;37207;53.060;18.726;2022-09-03T15:38:27;101224.83;;;21.91;35.47
51147;BME280;37207;53.060;18.726;2022-09-03T15:41:43;101223.94;;;21.74;35.68
51147;BME280;37207;53.060;18.726;2022-09-03T15:44:40;101224.41;;;21.61;35.89
51147;BME280;37207;53.060;18.726;2022-09-03T15:50:34;101228.30;;;21.39;36.43
51147;BME280;37207;53.060;18.726;2022-09-03T15:55:38;101232.50;;;21.20;36.36
51147;BME280;37207;53.060;18.726;2022-09-03T15:58:35;101231.12;;;21.11;36.56
51147;BME280;37207;53.060;18.726;2022-09-03T16:15:01;101235.73;;;20.39;37.55
51147;BME280;37207;53.060;18.726;2022-09-03T16:17:37;101234.70;;;20.28;37.66
51147;BME280;37207;53.060;18.726;2022-09-03T16:20:18;101229.39;;;20.19;37.97
51147;BME280;37207;53.060;18.726;2022-09-03T16:22:53;101224.23;;;20.10;38.15
51147;BME280;37207;53.060;18.726;2022-09-03T16:25:27;101229.78;;;20.03;38.49
51147;BME280;37207;53.060;18.726;2022-09-03T16:28:11;101230.06;;;19.95;38.56
51147;BME280;37207;53.060;18.726;2022-09-03T16:30:59;101225.89;;;19.87;38.71
51147;BME280;37207;53.060;18.726;2022-09-03T16:33:37;101224.16;;;19.80;38.97
51147;BME280;37207;53.060;18.726;2022-09-03T16:36:42;101226.92;;;19.73;39.05
51147;BME280;37207;53.060;18.726;2022-09-03T16:42:25;101220.55;;;19.57;39.30
51147;BME280;37207;53.060;18.726;2022-09-03T16:45:38;101219.28;;;19.46;39.54
51147;BME280;37207;53.060;18.726;2022-09-03T16:51:07;101220.80;;;19.29;40.19
51147;BME280;37207;53.060;18.726;2022-09-03T16:54:15;101224.13;;;19.19;40.29
51147;BME280;37207;53.060;18.726;2022-09-03T17:02:09;101223.52;;;18.85;40.84
51147;BME280;37207;53.060;18.726;2022-09-03T17:07:41;101225.62;;;18.62;41.27
51147;BME280;37207;53.060;18.726;2022-09-03T17:10:43;101224.60;;;18.52;41.49
51147;BME280;37207;53.060;18.726;2022-09-03T17:19:52;101231.22;;;18.13;42.40
51147;BME280;37207;53.060;18.726;2022-09-03T17:25:35;101234.97;;;17.81;42.94
51147;BME280;37207;53.060;18.726;2022-09-03T17:28:35;101238.42;;;17.67;43.23
51147;BME280;37207;53.060;18.726;2022-09-03T17:37:27;101248.69;;;17.33;43.91
51147;BME280;37207;53.060;18.726;2022-09-03T17:40:10;101249.37;;;17.21;44.18
51147;BME280;37207;53.060;18.726;2022-09-03T17:48:52;101255.58;;;16.88;44.98
51147;BME280;37207;53.060;18.726;2022-09-03T17:51:40;101264.91;;;16.77;45.11
51147;BME280;37207;53.060;18.726;2022-09-03T17:57:26;101267.34;;;16.57;45.58
51147;BME280;37207;53.060;18.726;2022-09-03T18:00:22;101269.79;;;16.47;45.75
51147;BME280;37207;53.060;18.726;2022-09-03T18:02:58;101271.89;;;16.38;45.94
51147;BME280;37207;53.060;18.726;2022-09-03T18:05:43;101273.61;;;16.30;45.99
51147;BME280;37207;53.060;18.726;2022-09-03T18:16:34;101285.60;;;16.01;46.91
51147;BME280;37207;53.060;18.726;2022-09-03T18:22:01;101283.94;;;15.87;47.19
51147;BME280;37207;53.060;18.726;2022-09-03T18:24:58;101283.98;;;15.81;47.41
51147;BME280;37207;53.060;18.726;2022-09-03T18:27:58;101284.98;;;15.76;47.51
51147;BME280;37207;53.060;18.726;2022-09-03T18:30:52;101286.52;;;15.70;47.67
51147;BME280;37207;53.060;18.726;2022-09-03T18:33:38;101287.30;;;15.62;47.82
51147;BME280;37207;53.060;18.726;2022-09-03T18:36:24;101289.41;;;15.54;47.89
51147;BME280;37207;53.060;18.726;2022-09-03T18:39:26;101294.64;;;15.47;48.23
51147;BME280;37207;53.060;18.726;2022-09-03T18:45:44;101297.52;;;15.29;48.55
51147;BME280;37207;53.060;18.726;2022-09-03T18:52:18;101296.02;;;15.15;48.83
51147;BME280;37207;53.060;18.726;2022-09-03T18:55:17;101298.88;;;15.09;49.08
51147;BME280;37207;53.060;18.726;2022-09-03T19:01:30;101298.42;;;14.98;49.26
51147;BME280;37207;53.060;18.726;2022-09-03T19:11:00;101296.38;;;14.80;49.77
51147;BME280;37207;53.060;18.726;2022-09-03T19:13:50;101303.26;;;14.74;49.84
51147;BME280;37207;53.060;18.726;2022-09-03T19:25:17;101305.44;;;14.56;50.38
51147;BME280;37207;53.060;18.726;2022-09-03T19:28:22;101303.90;;;14.51;50.60
51147;BME280;37207;53.060;18.726;2022-09-03T19:37:24;101307.31;;;14.36;51.06
51147;BME280;37207;53.060;18.726;2022-09-03T19:49:50;101307.45;;;14.21;51.43
51147;BME280;37207;53.060;18.726;2022-09-03T19:52:53;101310.27;;;14.17;51.73
51147;BME280;37207;53.060;18.726;2022-09-03T19:55:50;101308.13;;;14.16;52.03
51147;BME280;37207;53.060;18.726;2022-09-03T19:58:42;101306.73;;;14.13;51.96
51147;BME280;37207;53.060;18.726;2022-09-03T20:01:35;101311.70;;;14.09;52.30
51147;BME280;37207;53.060;18.726;2022-09-03T20:04:52;101309.98;;;14.05;52.35
51147;BME280;37207;53.060;18.726;2022-09-03T20:07:43;101320.02;;;13.99;52.55
51147;BME280;37207;53.060;18.726;2022-09-03T20:10:33;101319.34;;;13.94;52.76
51147;BME280;37207;53.060;18.726;2022-09-03T20:13:12;101323.41;;;13.91;52.93
51147;BME280;37207;53.060;18.726;2022-09-03T20:16:04;101322.47;;;13.88;53.12
51147;BME280;37207;53.060;18.726;2022-09-03T20:18:58;101323.61;;;13.84;53.28
51147;BME280;37207;53.060;18.726;2022-09-03T20:24:28;101324.10;;;13.73;53.66
51147;BME280;37207;53.060;18.726;2022-09-03T20:30:17;101333.66;;;13.64;54.06
51147;BME280;37207;53.060;18.726;2022-09-03T20:35:30;101335.87;;;13.54;54.39
51147;BME280;37207;53.060;18.726;2022-09-03T20:40:45;101330.95;;;13.47;54.91
51147;BME280;37207;53.060;18.726;2022-09-03T20:43:48;101337.83;;;13.43;55.01
51147;BME280;37207;53.060;18.726;2022-09-03T20:49:28;101340.32;;;13.37;55.43
51147;BME280;37207;53.060;18.726;2022-09-03T20:54:38;101339.16;;;13.32;55.72
51147;BME280;37207;53.060;18.726;2022-09-03T20:57:41;101343.05;;;13.27;55.93
51147;BME280;37207;53.060;18.726;2022-09-03T21:00:14;101343.41;;;13.25;56.11
51147;BME280;37207;53.060;18.726;2022-09-03T21:03:18;101345.23;;;13.22;56.38
51147;BME280;37207;53.060;18.726;2022-09-03T21:11:37;101348.35;;;13.14;56.83
51147;BME280;37207;53.060;18.726;2022-09-03T21:17:33;101344.64;;;13.08;57.43
51147;BME280;37207;53.060;18.726;2022-09-03T21:21:21;101348.27;;;13.01;57.46